sensor_id;sensor_type;location;lat;lon;timestamp;P1;durP1;ratioP1;P2;durP2;ratioP2
50393;SDS011;36308;46.312;25.288;2023-05-23T00:00:59;4.80;;;2.92;;
50393;SDS011;36308;46.312;25.288;2023-05-23T00:03:25;5.53;;;3.40;;
50393;SDS011;36308;46.312;25.288;2023-05-23T00:05:51;4.90;;;3.22;;
50393;SDS011;36308;46.312;25.288;2023-05-23T00:08:17;6.57;;;3.42;;
50393;SDS011;36308;46.312;25.288;2023-05-23T00:10:43;6.65;;;3.55;;
50393;SDS011;36308;46.312;25.288;2023-05-23T00:13:10;6.90;;;3.30;;
50393;SDS011;36308;46.312;25.288;2023-05-23T00:15:39;4.72;;;3.08;;
50393;SDS011;36308;46.312;25.288;2023-05-23T00:18:08;5.50;;;3.22;;
50393;SDS011;36308;46.312;25.288;2023-05-23T00:20:39;5.22;;;3.30;;
50393;SDS011;36308;46.312;25.288;2023-05-23T00:23:10;6.07;;;3.22;;
50393;SDS011;36308;46.312;25.288;2023-05-23T00:25:43;4.57;;;3.28;;
50393;SDS011;36308;46.312;25.288;2023-05-23T00:28:12;4.60;;;3.10;;
50393;SDS011;36308;46.312;25.288;2023-05-23T00:30:38;6.05;;;3.83;;
50393;SDS011;36308;46.312;25.288;2023-05-23T00:33:04;5.47;;;3.33;;
50393;SDS011;36308;46.312;25.288;2023-05-23T00:35:30;4.20;;;3.00;;
50393;SDS011;36308;46.312;25.288;2023-05-23T00:37:55;5.30;;;3.25;;
50393;SDS011;36308;46.312;25.288;2023-05-23T00:40:21;7.15;;;3.10;;
50393;SDS011;36308;46.312;25.288;2023-05-23T00:42:47;6.78;;;3.50;;
50393;SDS011;36308;46.312;25.288;2023-05-23T00:45:13;6.20;;;3.17;;
50393;SDS011;36308;46.312;25.288;2023-05-23T00:47:39;4.28;;;2.90;;
50393;SDS011;36308;46.312;25.288;2023-05-23T00:50:08;7.55;;;3.22;;
50393;SDS011;36308;46.312;25.288;2023-05-23T00:52:36;5.05;;;3.03;;
50393;SDS011;36308;46.312;25.288;2023-05-23T00:55:03;5.55;;;3.30;;
50393;SDS011;36308;46.312;25.288;2023-05-23T00:57:29;5.35;;;2.97;;
50393;SDS011;36308;46.312;25.288;2023-05-23T00:59:55;4.25;;;3.00;;
50393;SDS011;36308;46.312;25.288;2023-05-23T01:02:20;5.65;;;3.03;;
50393;SDS011;36308;46.312;25.288;2023-05-23T01:04:49;6.50;;;3.05;;
50393;SDS011;36308;46.312;25.288;2023-05-23T01:07:18;4.50;;;2.80;;
50393;SDS011;36308;46.312;25.288;2023-05-23T01:09:47;4.22;;;2.78;;
50393;SDS011;36308;46.312;25.288;2023-05-23T01:12:22;6.28;;;3.13;;
50393;SDS011;36308;46.312;25.288;2023-05-23T01:15:07;5.07;;;3.20;;
50393;SDS011;36308;46.312;25.288;2023-05-23T01:17:54;5.05;;;2.85;;
50393;SDS011;36308;46.312;25.288;2023-05-23T01:20:23;5.80;;;3.05;;
50393;SDS011;36308;46.312;25.288;2023-05-23T01:26:12;4.57;;;3.15;;
50393;SDS011;36308;46.312;25.288;2023-05-23T01:28:26;5.68;;;3.10;;
50393;SDS011;36308;46.312;25.288;2023-05-23T01:30:56;4.07;;;2.83;;
50393;SDS011;36308;46.312;25.288;2023-05-23T01:33:23;3.42;;;2.58;;
50393;SDS011;36308;46.312;25.288;2023-05-23T01:35:50;6.95;;;3.10;;
50393;SDS011;36308;46.312;25.288;2023-05-23T01:38:16;8.57;;;4.13;;
50393;SDS011;36308;46.312;25.288;2023-05-23T01:40:41;6.10;;;3.00;;
50393;SDS011;36308;46.312;25.288;2023-05-23T01:43:07;5.82;;;3.53;;
50393;SDS011;36308;46.312;25.288;2023-05-23T01:45:33;4.13;;;3.10;;
50393;SDS011;36308;46.312;25.288;2023-05-23T01:47:59;4.82;;;3.15;;
50393;SDS011;36308;46.312;25.288;2023-05-23T01:50:26;4.47;;;2.60;;
50393;SDS011;36308;46.312;25.288;2023-05-23T01:52:53;4.32;;;2.90;;
50393;SDS011;36308;46.312;25.288;2023-05-23T01:55:20;7.32;;;3.00;;
50393;SDS011;36308;46.312;25.288;2023-05-23T01:57:51;5.00;;;2.75;;
50393;SDS011;36308;46.312;25.288;2023-05-23T02:00:19;4.60;;;3.05;;
50393;SDS011;36308;46.312;25.288;2023-05-23T02:02:45;4.07;;;2.80;;
50393;SDS011;36308;46.312;25.288;2023-05-23T02:05:11;6.35;;;2.72;;
50393;SDS011;36308;46.312;25.288;2023-05-23T02:07:37;10.00;;;3.08;;
50393;SDS011;36308;46.312;25.288;2023-05-23T02:10:03;4.90;;;2.80;;
50393;SDS011;36308;46.312;25.288;2023-05-23T02:12:32;4.95;;;2.75;;
50393;SDS011;36308;46.312;25.288;2023-05-23T02:14:57;4.63;;;3.05;;
50393;SDS011;36308;46.312;25.288;2023-05-23T02:17:23;6.07;;;2.95;;
50393;SDS011;36308;46.312;25.288;2023-05-23T02:19:48;3.85;;;3.10;;
50393;SDS011;36308;46.312;25.288;2023-05-23T02:22:14;5.85;;;3.00;;
50393;SDS011;36308;46.312;25.288;2023-05-23T02:24:40;5.40;;;3.33;;
50393;SDS011;36308;46.312;25.288;2023-05-23T02:27:05;8.30;;;2.95;;
50393;SDS011;36308;46.312;25.288;2023-05-23T02:29:31;5.35;;;2.80;;
50393;SDS011;36308;46.312;25.288;2023-05-23T02:31:57;4.65;;;3.08;;
50393;SDS011;36308;46.312;25.288;2023-05-23T02:34:22;5.50;;;2.70;;
50393;SDS011;36308;46.312;25.288;2023-05-23T02:36:48;4.82;;;2.90;;
50393;SDS011;36308;46.312;25.288;2023-05-23T02:39:13;5.28;;;3.20;;
50393;SDS011;36308;46.312;25.288;2023-05-23T02:41:39;5.75;;;3.70;;
50393;SDS011;36308;46.312;25.288;2023-05-23T02:44:04;5.97;;;3.35;;
50393;SDS011;36308;46.312;25.288;2023-05-23T02:46:30;4.85;;;3.53;;
50393;SDS011;36308;46.312;25.288;2023-05-23T02:48:56;4.60;;;2.80;;
50393;SDS011;36308;46.312;25.288;2023-05-23T02:51:21;8.88;;;3.58;;
50393;SDS011;36308;46.312;25.288;2023-05-23T02:53:47;4.43;;;2.85;;
50393;SDS011;36308;46.312;25.288;2023-05-23T02:56:12;7.15;;;3.25;;
50393;SDS011;36308;46.312;25.288;2023-05-23T02:58:39;5.97;;;3.00;;
50393;SDS011;36308;46.312;25.288;2023-05-23T03:01:05;7.15;;;3.40;;
50393;SDS011;36308;46.312;25.288;2023-05-23T03:03:32;6.30;;;3.70;;
50393;SDS011;36308;46.312;25.288;2023-05-23T03:05:57;7.18;;;3.90;;
50393;SDS011;36308;46.312;25.288;2023-05-23T03:08:23;6.20;;;3.40;;
50393;SDS011;36308;46.312;25.288;2023-05-23T03:10:49;4.22;;;2.83;;
50393;SDS011;36308;46.312;25.288;2023-05-23T03:13:15;8.18;;;5.30;;
50393;SDS011;36308;46.312;25.288;2023-05-23T03:15:42;5.00;;;3.30;;
50393;SDS011;36308;46.312;25.288;2023-05-23T03:18:07;6.55;;;3.65;;
50393;SDS011;36308;46.312;25.288;2023-05-23T03:20:33;8.77;;;3.05;;
50393;SDS011;36308;46.312;25.288;2023-05-23T03:22:58;7.20;;;3.15;;
50393;SDS011;36308;46.312;25.288;2023-05-23T03:25:24;21.77;;;15.82;;
50393;SDS011;36308;46.312;25.288;2023-05-23T03:27:50;11.23;;;7.60;;
50393;SDS011;36308;46.312;25.288;2023-05-23T03:30:15;8.15;;;4.40;;
50393;SDS011;36308;46.312;25.288;2023-05-23T03:32:41;5.35;;;3.65;;
50393;SDS011;36308;46.312;25.288;2023-05-23T03:35:07;6.55;;;3.83;;
50393;SDS011;36308;46.312;25.288;2023-05-23T03:37:32;7.30;;;3.70;;
50393;SDS011;36308;46.312;25.288;2023-05-23T03:39:58;6.93;;;3.47;;
50393;SDS011;36308;46.312;25.288;2023-05-23T03:42:24;8.55;;;4.18;;
50393;SDS011;36308;46.312;25.288;2023-05-23T03:44:49;7.05;;;4.18;;
50393;SDS011;36308;46.312;25.288;2023-05-23T03:47:15;5.72;;;4.40;;
50393;SDS011;36308;46.312;25.288;2023-05-23T03:49:40;7.40;;;4.15;;
50393;SDS011;36308;46.312;25.288;2023-05-23T03:52:06;6.82;;;3.67;;
50393;SDS011;36308;46.312;25.288;2023-05-23T03:54:31;6.15;;;4.00;;
50393;SDS011;36308;46.312;25.288;2023-05-23T03:56:57;9.98;;;4.30;;
50393;SDS011;36308;46.312;25.288;2023-05-23T03:59:22;6.25;;;4.10;;
50393;SDS011;36308;46.312;25.288;2023-05-23T04:01:48;8.73;;;4.97;;
50393;SDS011;36308;46.312;25.288;2023-05-23T04:04:13;7.65;;;5.30;;
50393;SDS011;36308;46.312;25.288;2023-05-23T04:06:38;9.10;;;5.35;;
50393;SDS011;36308;46.312;25.288;2023-05-23T04:09:04;7.38;;;4.13;;
50393;SDS011;36308;46.312;25.288;2023-05-23T04:11:30;6.28;;;3.70;;
50393;SDS011;36308;46.312;25.288;2023-05-23T04:13:56;6.10;;;3.83;;
50393;SDS011;36308;46.312;25.288;2023-05-23T04:16:22;8.82;;;4.53;;
50393;SDS011;36308;46.312;25.288;2023-05-23T04:18:48;8.00;;;4.97;;
50393;SDS011;36308;46.312;25.288;2023-05-23T04:21:14;9.93;;;4.97;;
50393;SDS011;36308;46.312;25.288;2023-05-23T04:23:39;13.07;;;5.15;;
50393;SDS011;36308;46.312;25.288;2023-05-23T04:26:05;10.98;;;4.28;;
50393;SDS011;36308;46.312;25.288;2023-05-23T04:28:30;12.07;;;5.53;;
50393;SDS011;36308;46.312;25.288;2023-05-23T04:30:56;16.27;;;6.25;;
50393;SDS011;36308;46.312;25.288;2023-05-23T04:33:22;14.43;;;6.30;;
50393;SDS011;36308;46.312;25.288;2023-05-23T04:35:48;14.77;;;6.68;;
50393;SDS011;36308;46.312;25.288;2023-05-23T04:38:15;16.80;;;7.45;;
50393;SDS011;36308;46.312;25.288;2023-05-23T04:40:41;11.90;;;6.85;;
50393;SDS011;36308;46.312;25.288;2023-05-23T04:43:07;13.20;;;6.30;;
50393;SDS011;36308;46.312;25.288;2023-05-23T04:45:34;11.93;;;6.25;;
50393;SDS011;36308;46.312;25.288;2023-05-23T04:48:01;14.80;;;5.95;;
50393;SDS011;36308;46.312;25.288;2023-05-23T04:50:27;13.98;;;5.97;;
50393;SDS011;36308;46.312;25.288;2023-05-23T04:52:55;10.75;;;5.60;;
50393;SDS011;36308;46.312;25.288;2023-05-23T04:55:21;11.70;;;5.95;;
50393;SDS011;36308;46.312;25.288;2023-05-23T04:57:47;12.00;;;5.07;;
50393;SDS011;36308;46.312;25.288;2023-05-23T05:00:12;10.77;;;5.47;;
50393;SDS011;36308;46.312;25.288;2023-05-23T05:02:38;9.20;;;5.32;;
50393;SDS011;36308;46.312;25.288;2023-05-23T05:05:05;8.68;;;5.30;;
50393;SDS011;36308;46.312;25.288;2023-05-23T05:07:31;10.35;;;5.90;;
50393;SDS011;36308;46.312;25.288;2023-05-23T05:09:56;12.30;;;6.10;;
50393;SDS011;36308;46.312;25.288;2023-05-23T05:12:22;11.68;;;6.95;;
50393;SDS011;36308;46.312;25.288;2023-05-23T05:14:48;10.63;;;5.95;;
50393;SDS011;36308;46.312;25.288;2023-05-23T05:17:13;11.73;;;6.05;;
50393;SDS011;36308;46.312;25.288;2023-05-23T05:19:39;11.63;;;5.88;;
50393;SDS011;36308;46.312;25.288;2023-05-23T05:22:04;12.50;;;5.60;;
50393;SDS011;36308;46.312;25.288;2023-05-23T05:24:30;13.68;;;5.78;;
50393;SDS011;36308;46.312;25.288;2023-05-23T05:26:56;9.63;;;5.30;;
50393;SDS011;36308;46.312;25.288;2023-05-23T05:29:22;12.43;;;5.65;;
50393;SDS011;36308;46.312;25.288;2023-05-23T05:31:47;19.92;;;6.43;;
50393;SDS011;36308;46.312;25.288;2023-05-23T05:34:13;15.00;;;5.50;;
50393;SDS011;36308;46.312;25.288;2023-05-23T05:36:38;10.98;;;5.40;;
50393;SDS011;36308;46.312;25.288;2023-05-23T05:39:11;11.25;;;5.80;;
50393;SDS011;36308;46.312;25.288;2023-05-23T05:41:37;9.77;;;5.30;;
50393;SDS011;36308;46.312;25.288;2023-05-23T05:44:03;17.70;;;6.78;;
50393;SDS011;36308;46.312;25.288;2023-05-23T05:46:29;9.70;;;5.38;;
50393;SDS011;36308;46.312;25.288;2023-05-23T05:48:54;7.82;;;5.50;;
50393;SDS011;36308;46.312;25.288;2023-05-23T05:51:20;12.43;;;6.05;;
50393;SDS011;36308;46.312;25.288;2023-05-23T05:53:45;11.90;;;6.65;;
50393;SDS011;36308;46.312;25.288;2023-05-23T05:56:11;12.32;;;5.57;;
50393;SDS011;36308;46.312;25.288;2023-05-23T05:58:36;14.32;;;6.63;;
50393;SDS011;36308;46.312;25.288;2023-05-23T06:01:02;11.27;;;6.90;;
50393;SDS011;36308;46.312;25.288;2023-05-23T06:03:29;9.95;;;5.63;;
50393;SDS011;36308;46.312;25.288;2023-05-23T06:05:56;14.85;;;5.70;;
50393;SDS011;36308;46.312;25.288;2023-05-23T06:08:21;12.57;;;5.57;;
50393;SDS011;36308;46.312;25.288;2023-05-23T06:10:47;15.45;;;7.28;;
50393;SDS011;36308;46.312;25.288;2023-05-23T06:13:12;14.48;;;6.95;;
50393;SDS011;36308;46.312;25.288;2023-05-23T06:15:38;7.28;;;5.10;;
50393;SDS011;36308;46.312;25.288;2023-05-23T06:18:03;8.65;;;5.85;;
50393;SDS011;36308;46.312;25.288;2023-05-23T06:20:29;12.43;;;6.18;;
50393;SDS011;36308;46.312;25.288;2023-05-23T06:22:54;9.48;;;5.38;;
50393;SDS011;36308;46.312;25.288;2023-05-23T06:25:20;7.43;;;4.40;;
50393;SDS011;36308;46.312;25.288;2023-05-23T06:27:46;16.55;;;4.38;;
50393;SDS011;36308;46.312;25.288;2023-05-23T06:30:12;8.55;;;5.07;;
50393;SDS011;36308;46.312;25.288;2023-05-23T06:32:39;10.30;;;4.93;;
50393;SDS011;36308;46.312;25.288;2023-05-23T06:35:05;13.98;;;5.13;;
50393;SDS011;36308;46.312;25.288;2023-05-23T06:37:31;12.40;;;6.03;;
50393;SDS011;36308;46.312;25.288;2023-05-23T06:39:56;12.65;;;5.65;;
50393;SDS011;36308;46.312;25.288;2023-05-23T06:42:21;7.43;;;5.85;;
50393;SDS011;36308;46.312;25.288;2023-05-23T06:44:47;10.82;;;5.85;;
50393;SDS011;36308;46.312;25.288;2023-05-23T06:47:12;11.45;;;4.88;;
50393;SDS011;36308;46.312;25.288;2023-05-23T06:49:38;15.95;;;7.93;;
50393;SDS011;36308;46.312;25.288;2023-05-23T06:52:03;14.52;;;5.78;;
50393;SDS011;36308;46.312;25.288;2023-05-23T06:54:29;13.30;;;5.70;;
50393;SDS011;36308;46.312;25.288;2023-05-23T06:56:55;13.52;;;5.60;;
50393;SDS011;36308;46.312;25.288;2023-05-23T06:59:20;8.93;;;4.88;;
50393;SDS011;36308;46.312;25.288;2023-05-23T07:01:46;8.85;;;4.78;;
50393;SDS011;36308;46.312;25.288;2023-05-23T07:04:11;8.13;;;4.38;;
50393;SDS011;36308;46.312;25.288;2023-05-23T07:06:37;14.35;;;4.78;;
50393;SDS011;36308;46.312;25.288;2023-05-23T07:09:04;8.80;;;4.30;;
50393;SDS011;36308;46.312;25.288;2023-05-23T07:11:29;10.60;;;3.40;;
50393;SDS011;36308;46.312;25.288;2023-05-23T07:13:55;6.00;;;3.97;;
50393;SDS011;36308;46.312;25.288;2023-05-23T07:16:20;8.02;;;3.78;;
50393;SDS011;36308;46.312;25.288;2023-05-23T07:18:46;8.38;;;4.07;;
50393;SDS011;36308;46.312;25.288;2023-05-23T07:21:11;8.18;;;4.00;;
50393;SDS011;36308;46.312;25.288;2023-05-23T07:23:37;5.15;;;3.58;;
50393;SDS011;36308;46.312;25.288;2023-05-23T07:26:02;5.13;;;3.20;;
50393;SDS011;36308;46.312;25.288;2023-05-23T07:28:29;10.70;;;3.40;;
50393;SDS011;36308;46.312;25.288;2023-05-23T07:30:54;6.70;;;3.15;;
50393;SDS011;36308;46.312;25.288;2023-05-23T07:33:22;4.95;;;3.35;;
50393;SDS011;36308;46.312;25.288;2023-05-23T07:35:48;7.53;;;3.63;;
50393;SDS011;36308;46.312;25.288;2023-05-23T07:38:13;5.40;;;3.50;;
50393;SDS011;36308;46.312;25.288;2023-05-23T07:40:39;9.00;;;3.30;;
50393;SDS011;36308;46.312;25.288;2023-05-23T07:43:04;6.60;;;3.60;;
50393;SDS011;36308;46.312;25.288;2023-05-23T07:45:30;7.82;;;3.25;;
50393;SDS011;36308;46.312;25.288;2023-05-23T07:47:56;10.23;;;2.90;;
50393;SDS011;36308;46.312;25.288;2023-05-23T07:50:21;10.40;;;3.50;;
50393;SDS011;36308;46.312;25.288;2023-05-23T07:52:47;6.00;;;3.42;;
50393;SDS011;36308;46.312;25.288;2023-05-23T07:55:15;8.48;;;3.13;;
50393;SDS011;36308;46.312;25.288;2023-05-23T07:57:40;7.47;;;3.45;;
50393;SDS011;36308;46.312;25.288;2023-05-23T08:00:06;9.40;;;3.33;;
50393;SDS011;36308;46.312;25.288;2023-05-23T08:02:34;7.32;;;3.17;;
50393;SDS011;36308;46.312;25.288;2023-05-23T08:04:59;5.45;;;3.17;;
50393;SDS011;36308;46.312;25.288;2023-05-23T08:07:25;5.57;;;2.80;;
50393;SDS011;36308;46.312;25.288;2023-05-23T08:09:51;5.50;;;2.75;;
50393;SDS011;36308;46.312;25.288;2023-05-23T08:12:16;8.25;;;3.38;;
50393;SDS011;36308;46.312;25.288;2023-05-23T08:14:42;3.75;;;2.97;;
50393;SDS011;36308;46.312;25.288;2023-05-23T08:17:07;6.63;;;3.03;;
50393;SDS011;36308;46.312;25.288;2023-05-23T08:19:33;7.38;;;3.05;;
50393;SDS011;36308;46.312;25.288;2023-05-23T08:21:58;6.07;;;3.47;;
50393;SDS011;36308;46.312;25.288;2023-05-23T08:24:24;8.48;;;3.40;;
50393;SDS011;36308;46.312;25.288;2023-05-23T08:26:49;5.20;;;2.80;;
50393;SDS011;36308;46.312;25.288;2023-05-23T08:29:15;7.82;;;3.50;;
50393;SDS011;36308;46.312;25.288;2023-05-23T08:31:40;4.70;;;2.80;;
50393;SDS011;36308;46.312;25.288;2023-05-23T08:34:06;5.25;;;2.70;;
50393;SDS011;36308;46.312;25.288;2023-05-23T08:36:32;4.82;;;2.45;;
50393;SDS011;36308;46.312;25.288;2023-05-23T08:39:00;4.68;;;2.40;;
50393;SDS011;36308;46.312;25.288;2023-05-23T08:41:26;7.15;;;3.10;;
50393;SDS011;36308;46.312;25.288;2023-05-23T08:43:51;6.85;;;2.65;;
50393;SDS011;36308;46.312;25.288;2023-05-23T08:46:17;4.75;;;2.92;;
50393;SDS011;36308;46.312;25.288;2023-05-23T08:48:43;6.50;;;2.95;;
50393;SDS011;36308;46.312;25.288;2023-05-23T08:51:15;5.38;;;2.78;;
50393;SDS011;36308;46.312;25.288;2023-05-23T08:53:42;5.40;;;3.22;;
50393;SDS011;36308;46.312;25.288;2023-05-23T08:56:13;6.57;;;2.95;;
50393;SDS011;36308;46.312;25.288;2023-05-23T08:58:40;10.10;;;3.30;;
50393;SDS011;36308;46.312;25.288;2023-05-23T09:01:07;3.58;;;2.65;;
50393;SDS011;36308;46.312;25.288;2023-05-23T09:03:34;5.35;;;2.90;;
50393;SDS011;36308;46.312;25.288;2023-05-23T09:06:06;5.50;;;3.00;;
50393;SDS011;36308;46.312;25.288;2023-05-23T09:08:34;5.38;;;2.85;;
50393;SDS011;36308;46.312;25.288;2023-05-23T09:11:00;5.35;;;3.08;;
50393;SDS011;36308;46.312;25.288;2023-05-23T09:13:28;8.70;;;3.10;;
50393;SDS011;36308;46.312;25.288;2023-05-23T09:18:32;4.45;;;2.33;;
50393;SDS011;36308;46.312;25.288;2023-05-23T09:21:00;6.05;;;3.03;;
50393;SDS011;36308;46.312;25.288;2023-05-23T09:23:28;6.03;;;2.88;;
50393;SDS011;36308;46.312;25.288;2023-05-23T09:25:55;8.10;;;3.00;;
50393;SDS011;36308;46.312;25.288;2023-05-23T09:28:20;5.60;;;2.67;;
50393;SDS011;36308;46.312;25.288;2023-05-23T09:30:46;6.18;;;3.00;;
50393;SDS011;36308;46.312;25.288;2023-05-23T09:33:12;6.80;;;2.85;;
50393;SDS011;36308;46.312;25.288;2023-05-23T09:35:44;3.95;;;2.65;;
50393;SDS011;36308;46.312;25.288;2023-05-23T09:38:10;5.15;;;2.85;;
50393;SDS011;36308;46.312;25.288;2023-05-23T09:40:37;4.95;;;3.20;;
50393;SDS011;36308;46.312;25.288;2023-05-23T09:43:08;4.13;;;2.70;;
50393;SDS011;36308;46.312;25.288;2023-05-23T09:45:34;4.18;;;2.55;;
50393;SDS011;36308;46.312;25.288;2023-05-23T09:48:00;6.82;;;3.05;;
50393;SDS011;36308;46.312;25.288;2023-05-23T09:50:29;8.38;;;2.97;;
50393;SDS011;36308;46.312;25.288;2023-05-23T09:52:57;5.93;;;3.00;;
50393;SDS011;36308;46.312;25.288;2023-05-23T09:55:23;7.10;;;2.70;;
50393;SDS011;36308;46.312;25.288;2023-05-23T09:57:50;4.40;;;2.95;;
50393;SDS011;36308;46.312;25.288;2023-05-23T10:00:20;5.00;;;2.80;;
50393;SDS011;36308;46.312;25.288;2023-05-23T10:05:33;5.80;;;3.00;;
50393;SDS011;36308;46.312;25.288;2023-05-23T10:08:04;5.40;;;2.85;;
50393;SDS011;36308;46.312;25.288;2023-05-23T10:10:34;6.28;;;2.85;;
50393;SDS011;36308;46.312;25.288;2023-05-23T10:13:24;6.30;;;3.10;;
50393;SDS011;36308;46.312;25.288;2023-05-23T10:15:54;3.67;;;2.55;;
50393;SDS011;36308;46.312;25.288;2023-05-23T10:18:43;5.35;;;3.45;;
50393;SDS011;36308;46.312;25.288;2023-05-23T10:21:14;3.88;;;2.80;;
50393;SDS011;36308;46.312;25.288;2023-05-23T10:23:45;7.57;;;4.25;;
50393;SDS011;36308;46.312;25.288;2023-05-23T10:26:12;7.68;;;4.15;;
50393;SDS011;36308;46.312;25.288;2023-05-23T10:28:38;6.00;;;2.95;;
50393;SDS011;36308;46.312;25.288;2023-05-23T10:31:05;8.73;;;3.05;;
50393;SDS011;36308;46.312;25.288;2023-05-23T10:33:32;6.60;;;3.13;;
50393;SDS011;36308;46.312;25.288;2023-05-23T10:38:41;5.82;;;2.80;;
50393;SDS011;36308;46.312;25.288;2023-05-23T10:41:42;8.07;;;3.10;;
50393;SDS011;36308;46.312;25.288;2023-05-23T10:52:04;6.57;;;2.83;;
50393;SDS011;36308;46.312;25.288;2023-05-23T10:54:36;6.93;;;3.25;;
50393;SDS011;36308;46.312;25.288;2023-05-23T10:57:08;6.03;;;2.97;;
50393;SDS011;36308;46.312;25.288;2023-05-23T10:59:35;6.93;;;3.03;;
50393;SDS011;36308;46.312;25.288;2023-05-23T11:02:02;5.18;;;2.72;;
50393;SDS011;36308;46.312;25.288;2023-05-23T11:04:33;6.03;;;3.05;;
50393;SDS011;36308;46.312;25.288;2023-05-23T11:06:58;4.40;;;2.80;;
50393;SDS011;36308;46.312;25.288;2023-05-23T11:09:24;9.02;;;3.15;;
50393;SDS011;36308;46.312;25.288;2023-05-23T11:14:19;4.78;;;3.17;;
50393;SDS011;36308;46.312;25.288;2023-05-23T11:16:45;4.93;;;2.80;;
50393;SDS011;36308;46.312;25.288;2023-05-23T11:19:30;4.32;;;2.70;;
50393;SDS011;36308;46.312;25.288;2023-05-23T11:21:57;4.35;;;2.97;;
50393;SDS011;36308;46.312;25.288;2023-05-23T11:30:16;6.05;;;3.15;;
50393;SDS011;36308;46.312;25.288;2023-05-23T11:32:42;3.60;;;2.75;;
50393;SDS011;36308;46.312;25.288;2023-05-23T11:35:16;7.38;;;3.05;;
50393;SDS011;36308;46.312;25.288;2023-05-23T11:37:42;7.28;;;3.13;;
50393;SDS011;36308;46.312;25.288;2023-05-23T11:42:57;5.28;;;3.00;;
50393;SDS011;36308;46.312;25.288;2023-05-23T11:45:23;4.80;;;2.95;;
50393;SDS011;36308;46.312;25.288;2023-05-23T11:47:50;5.28;;;2.83;;
50393;SDS011;36308;46.312;25.288;2023-05-23T11:50:16;3.97;;;3.03;;
50393;SDS011;36308;46.312;25.288;2023-05-23T11:52:42;4.15;;;2.97;;
50393;SDS011;36308;46.312;25.288;2023-05-23T11:55:15;3.67;;;2.45;;
50393;SDS011;36308;46.312;25.288;2023-05-23T11:57:42;5.97;;;2.75;;
50393;SDS011;36308;46.312;25.288;2023-05-23T12:00:08;5.65;;;3.05;;
50393;SDS011;36308;46.312;25.288;2023-05-23T12:02:38;4.80;;;2.95;;
50393;SDS011;36308;46.312;25.288;2023-05-23T12:05:11;4.50;;;3.22;;
50393;SDS011;36308;46.312;25.288;2023-05-23T12:10:10;5.03;;;2.85;;
50393;SDS011;36308;46.312;25.288;2023-05-23T12:12:36;8.27;;;2.72;;
50393;SDS011;36308;46.312;25.288;2023-05-23T12:15:02;6.78;;;3.10;;
50393;SDS011;36308;46.312;25.288;2023-05-23T12:17:29;15.55;;;3.47;;
50393;SDS011;36308;46.312;25.288;2023-05-23T12:19:55;6.95;;;3.08;;
50393;SDS011;36308;46.312;25.288;2023-05-23T12:22:23;4.18;;;2.90;;
50393;SDS011;36308;46.312;25.288;2023-05-23T12:24:53;6.00;;;2.92;;
50393;SDS011;36308;46.312;25.288;2023-05-23T12:27:28;9.57;;;3.60;;
50393;SDS011;36308;46.312;25.288;2023-05-23T12:30:08;8.18;;;2.95;;
50393;SDS011;36308;46.312;25.288;2023-05-23T12:32:41;6.22;;;2.72;;
50393;SDS011;36308;46.312;25.288;2023-05-23T12:35:08;6.28;;;3.35;;
50393;SDS011;36308;46.312;25.288;2023-05-23T12:37:38;6.72;;;2.90;;
50393;SDS011;36308;46.312;25.288;2023-05-23T12:40:11;5.85;;;3.00;;
50393;SDS011;36308;46.312;25.288;2023-05-23T12:42:50;5.28;;;2.83;;
50393;SDS011;36308;46.312;25.288;2023-05-23T12:45:36;5.20;;;3.00;;
50393;SDS011;36308;46.312;25.288;2023-05-23T12:48:03;4.68;;;2.53;;
50393;SDS011;36308;46.312;25.288;2023-05-23T12:50:29;4.45;;;2.38;;
50393;SDS011;36308;46.312;25.288;2023-05-23T12:52:55;4.90;;;2.88;;
50393;SDS011;36308;46.312;25.288;2023-05-23T12:55:21;8.73;;;2.70;;
50393;SDS011;36308;46.312;25.288;2023-05-23T12:57:46;10.38;;;3.35;;
50393;SDS011;36308;46.312;25.288;2023-05-23T13:00:12;6.10;;;2.65;;
50393;SDS011;36308;46.312;25.288;2023-05-23T13:02:38;5.68;;;2.95;;
50393;SDS011;36308;46.312;25.288;2023-05-23T13:05:04;5.97;;;2.70;;
50393;SDS011;36308;46.312;25.288;2023-05-23T13:07:31;4.45;;;2.92;;
50393;SDS011;36308;46.312;25.288;2023-05-23T13:09:56;3.92;;;2.90;;
50393;SDS011;36308;46.312;25.288;2023-05-23T13:12:22;6.93;;;3.40;;
50393;SDS011;36308;46.312;25.288;2023-05-23T13:14:48;7.45;;;3.67;;
50393;SDS011;36308;46.312;25.288;2023-05-23T13:17:13;6.22;;;3.65;;
50393;SDS011;36308;46.312;25.288;2023-05-23T13:19:39;5.30;;;3.10;;
50393;SDS011;36308;46.312;25.288;2023-05-23T13:22:05;4.25;;;2.80;;
50393;SDS011;36308;46.312;25.288;2023-05-23T13:24:34;6.47;;;3.38;;
50393;SDS011;36308;46.312;25.288;2023-05-23T13:27:19;12.90;;;8.00;;
50393;SDS011;36308;46.312;25.288;2023-05-23T13:29:44;8.73;;;4.30;;
50393;SDS011;36308;46.312;25.288;2023-05-23T13:32:09;6.82;;;4.55;;
50393;SDS011;36308;46.312;25.288;2023-05-23T13:34:35;11.00;;;3.30;;
50393;SDS011;36308;46.312;25.288;2023-05-23T13:37:01;10.68;;;3.38;;
50393;SDS011;36308;46.312;25.288;2023-05-23T13:39:27;5.35;;;3.10;;
50393;SDS011;36308;46.312;25.288;2023-05-23T13:41:53;5.65;;;2.90;;
50393;SDS011;36308;46.312;25.288;2023-05-23T13:44:18;5.45;;;3.30;;
50393;SDS011;36308;46.312;25.288;2023-05-23T13:46:44;6.55;;;3.10;;
50393;SDS011;36308;46.312;25.288;2023-05-23T13:49:09;6.15;;;3.10;;
50393;SDS011;36308;46.312;25.288;2023-05-23T13:51:35;5.90;;;3.13;;
50393;SDS011;36308;46.312;25.288;2023-05-23T13:54:04;6.10;;;3.30;;
50393;SDS011;36308;46.312;25.288;2023-05-23T13:56:30;3.47;;;2.95;;
50393;SDS011;36308;46.312;25.288;2023-05-23T13:58:56;5.93;;;2.72;;
50393;SDS011;36308;46.312;25.288;2023-05-23T14:01:21;4.40;;;2.80;;
50393;SDS011;36308;46.312;25.288;2023-05-23T14:03:48;6.20;;;2.60;;
50393;SDS011;36308;46.312;25.288;2023-05-23T14:06:13;6.00;;;2.88;;
50393;SDS011;36308;46.312;25.288;2023-05-23T14:08:39;8.60;;;2.97;;
50393;SDS011;36308;46.312;25.288;2023-05-23T14:11:04;6.45;;;3.10;;
50393;SDS011;36308;46.312;25.288;2023-05-23T14:13:30;12.75;;;3.50;;
50393;SDS011;36308;46.312;25.288;2023-05-23T14:15:56;8.90;;;3.83;;
50393;SDS011;36308;46.312;25.288;2023-05-23T14:18:22;7.97;;;3.40;;
50393;SDS011;36308;46.312;25.288;2023-05-23T14:20:47;8.82;;;3.58;;
50393;SDS011;36308;46.312;25.288;2023-05-23T14:23:13;6.97;;;3.70;;
50393;SDS011;36308;46.312;25.288;2023-05-23T14:25:38;9.32;;;3.78;;
50393;SDS011;36308;46.312;25.288;2023-05-23T14:28:04;6.90;;;3.58;;
50393;SDS011;36308;46.312;25.288;2023-05-23T14:30:29;8.93;;;3.80;;
50393;SDS011;36308;46.312;25.288;2023-05-23T14:32:55;12.90;;;3.53;;
50393;SDS011;36308;46.312;25.288;2023-05-23T14:35:20;19.23;;;4.20;;
50393;SDS011;36308;46.312;25.288;2023-05-23T14:37:50;12.75;;;3.50;;
50393;SDS011;36308;46.312;25.288;2023-05-23T14:40:15;29.23;;;5.20;;
50393;SDS011;36308;46.312;25.288;2023-05-23T14:42:41;8.60;;;2.90;;
50393;SDS011;36308;46.312;25.288;2023-05-23T14:45:07;14.98;;;3.53;;
50393;SDS011;36308;46.312;25.288;2023-05-23T14:47:33;11.68;;;3.20;;
50393;SDS011;36308;46.312;25.288;2023-05-23T14:50:01;6.97;;;2.90;;
50393;SDS011;36308;46.312;25.288;2023-05-23T14:52:26;11.50;;;2.85;;
50393;SDS011;36308;46.312;25.288;2023-05-23T14:54:52;7.75;;;3.17;;
50393;SDS011;36308;46.312;25.288;2023-05-23T14:57:17;10.40;;;2.92;;
50393;SDS011;36308;46.312;25.288;2023-05-23T14:59:43;13.38;;;2.90;;
50393;SDS011;36308;46.312;25.288;2023-05-23T15:02:09;5.07;;;2.92;;